Time;durP1;ratioP1;P1;durP2;ratioP2;P2;SDS_P1;SDS_P2;PMS_P1;PMS_P2;Temp;Humidity;BMP_temperature;BMP_pressure;BME280_temperature;BME280_humidity;BME280_pressure;Samples;Min_cycle;Max_cycle;Signal;HPM_P1;HPM_P2
2022/07/14 00:02:22;;;;;;;5.20;1.30;;;23.60;64.90;;;;;;5031820;28;20106;-62
2022/07/14 00:04:48;;;;;;;4.15;1.08;;;23.60;64.90;;;;;;5031831;28;20108;-62
2022/07/14 00:07:13;;;;;;;2.97;1.00;;;23.60;64.90;;;;;;5032110;28;20041;-62
2022/07/14 00:09:39;;;;;;;3.45;0.98;;;23.60;64.90;;;;;;5031629;28;20892;-62
2022/07/14 00:12:05;;;;;;;4.97;1.20;;;23.60;64.90;;;;;;5032040;28;20052;-61
2022/07/14 00:14:30;;;;;;;5.35;1.70;;;23.60;64.90;;;;;;5032154;28;20073;-61
2022/07/14 00:16:56;;;;;;;4.70;1.20;;;23.60;64.90;;;;;;5031264;28;20049;-62
2022/07/14 00:19:21;;;;;;;4.85;1.02;;;23.60;65.00;;;;;;5032437;28;20064;-62
2022/07/14 00:21:47;;;;;;;5.03;1.15;;;23.60;65.60;;;;;;5032008;28;20523;-62
2022/07/14 00:24:13;;;;;;;2.88;1.00;;;23.60;65.00;;;;;;5030247;28;20041;-62
2022/07/14 00:26:42;;;;;;;5.00;1.10;;;23.60;65.00;;;;;;5032357;28;20382;-62
2022/07/14 00:29:07;;;;;;;3.67;1.05;;;23.60;65.00;;;;;;5031816;28;20133;-62
2022/07/14 00:31:33;;;;;;;5.18;1.30;;;23.50;65.00;;;;;;5031585;28;20132;-62
2022/07/14 00:33:59;;;;;;;3.55;1.10;;;23.50;65.00;;;;;;5031781;28;20120;-62
2022/07/14 00:36:26;;;;;;;4.95;1.05;;;23.60;65.10;;;;;;5031998;28;20041;-61
2022/07/14 00:38:55;;;;;;;4.10;1.25;;;23.50;65.00;;;;;;5031107;28;20155;-62
2022/07/14 00:41:21;;;;;;;4.13;0.85;;;23.50;65.00;;;;;;5032247;28;20052;-62
2022/07/14 00:43:46;;;;;;;5.18;1.05;;;23.50;65.00;;;;;;5033306;28;20041;-62
2022/07/14 00:46:12;;;;;;;2.67;0.90;;;23.50;65.00;;;;;;5035008;28;20124;-62
2022/07/14 00:48:37;;;;;;;4.30;0.90;;;23.50;65.00;;;;;;5035451;28;20041;-62
2022/07/14 00:51:03;;;;;;;4.95;1.23;;;23.50;65.00;;;;;;5035323;28;20037;-62
2022/07/14 00:53:29;;;;;;;4.90;1.15;;;23.50;65.10;;;;;;5034485;28;20046;-62
2022/07/14 00:55:54;;;;;;;4.20;0.95;;;23.50;65.00;;;;;;5033783;28;20042;-62
2022/07/14 00:58:20;;;;;;;7.55;1.00;;;23.50;65.10;;;;;;5035529;28;20037;-61
2022/07/14 01:00:46;;;;;;;3.35;0.80;;;23.50;65.10;;;;;;5034219;28;20132;-61
2022/07/14 01:03:11;;;;;;;3.88;1.23;;;23.50;65.00;;;;;;5035533;28;20504;-62
2022/07/14 01:05:37;;;;;;;4.88;1.45;;;23.50;65.10;;;;;;5034430;28;20452;-62
2022/07/14 01:08:03;;;;;;;4.07;0.85;;;23.50;65.10;;;;;;5034562;28;20045;-62
2022/07/14 01:10:28;;;;;;;3.88;0.80;;;23.50;65.00;;;;;;5033975;28;20074;-62
2022/07/14 01:12:59;;;;;;;3.40;0.80;;;23.40;65.10;;;;;;5034128;28;20423;-62
2022/07/14 01:15:24;;;;;;;2.28;0.70;;;23.50;65.10;;;;;;5035081;28;20044;-63
2022/07/14 01:17:50;;;;;;;4.88;0.93;;;23.50;65.10;;;;;;5035012;28;20045;-62
2022/07/14 01:20:16;;;;;;;3.05;0.90;;;23.50;65.70;;;;;;5034383;28;20045;-63
2022/07/14 01:22:42;;;;;;;3.53;0.80;;;23.40;65.10;;;;;;5034851;28;20041;-63
2022/07/14 01:25:08;;;;;;;3.35;0.80;;;23.40;65.10;;;;;;5035064;28;20128;-63
2022/07/14 01:27:34;;;;;;;3.05;0.77;;;23.40;65.10;;;;;;5034292;28;20045;-63
2022/07/14 01:29:59;;;;;;;4.40;0.88;;;23.40;65.10;;;;;;5034127;28;20057;-62
2022/07/14 01:32:25;;;;;;;5.40;1.45;;;23.40;65.10;;;;;;5034782;28;20041;-62
2022/07/14 01:34:52;;;;;;;3.80;0.90;;;23.40;65.20;;;;;;5033880;28;20128;-63
2022/07/14 01:37:18;;;;;;;4.32;0.80;;;23.40;65.20;;;;;;5033476;28;20120;-62
2022/07/14 01:39:43;;;;;;;3.47;1.08;;;23.40;65.20;;;;;;5034174;28;20133;-62
2022/07/14 01:42:09;;;;;;;3.40;0.80;;;23.40;65.20;;;;;;5034132;28;20038;-61
2022/07/14 01:44:34;;;;;;;3.42;0.88;;;23.40;65.20;;;;;;5034247;28;20049;-61
2022/07/14 01:47:00;;;;;;;2.90;0.90;;;23.40;65.20;;;;;;5033009;28;20053;-62
2022/07/14 01:49:26;;;;;;;4.03;0.82;;;23.40;65.20;;;;;;5033711;28;20034;-62
2022/07/14 01:51:52;;;;;;;4.47;0.80;;;23.40;65.20;;;;;;5034285;28;20055;-62
2022/07/14 01:54:17;;;;;;;4.82;1.20;;;23.40;65.20;;;;;;5034655;28;20128;-62
2022/07/14 01:56:43;;;;;;;3.90;0.95;;;23.40;65.20;;;;;;5032915;28;20128;-62
2022/07/14 01:59:09;;;;;;;3.25;0.80;;;23.40;65.20;;;;;;5034354;28;20136;-62
2022/07/14 02:01:40;;;;;;;4.28;1.00;;;23.30;65.10;;;;;;5033814;28;20077;-62
2022/07/14 02:04:16;;;;;;;3.17;0.73;;;23.30;65.20;;;;;;5032412;28;20137;-62
2022/07/14 02:06:54;;;;;;;2.42;0.75;;;23.30;65.20;;;;;;5033542;28;20060;-62
2022/07/14 02:09:19;;;;;;;2.38;0.70;;;23.30;65.20;;;;;;5033535;28;20079;-62
2022/07/14 02:14:30;;;;;;;4.38;0.93;;;23.30;65.20;;;;;;5033652;28;20049;-62
2022/07/14 02:16:55;;;;;;;2.40;0.60;;;23.30;65.30;;;;;;5033016;28;20041;-62
2022/07/14 02:19:23;;;;;;;3.55;0.98;;;23.30;65.30;;;;;;5033853;28;20038;-62
2022/07/14 02:21:49;;;;;;;2.67;0.77;;;23.30;65.30;;;;;;5033620;28;20046;-62
2022/07/14 02:24:15;;;;;;;3.97;0.90;;;23.30;65.30;;;;;;5033266;28;20099;-62
2022/07/14 02:26:41;;;;;;;5.03;1.10;;;23.30;65.30;;;;;;5033424;28;20389;-62
2022/07/14 02:29:07;;;;;;;3.03;0.80;;;23.30;65.30;;;;;;5033257;28;20045;-62
2022/07/14 02:31:33;;;;;;;3.85;0.70;;;23.30;65.30;;;;;;5032090;28;20444;-63
2022/07/14 02:33:59;;;;;;;3.15;0.90;;;23.30;65.40;;;;;;5033655;28;20069;-62
2022/07/14 02:36:25;;;;;;;2.35;0.60;;;23.30;65.40;;;;;;5034008;28;20099;-62
2022/07/14 02:38:50;;;;;;;1.92;0.60;;;23.20;65.30;;;;;;5032355;28;20042;-62
2022/07/14 02:41:16;;;;;;;1.90;0.75;;;23.20;65.30;;;;;;5033827;28;20037;-62
2022/07/14 02:43:41;;;;;;;2.95;0.70;;;23.20;65.30;;;;;;5033150;28;20132;-63
2022/07/14 02:46:07;;;;;;;1.55;0.60;;;23.20;65.30;;;;;;5032726;28;20052;-63
2022/07/14 02:48:32;;;;;;;1.95;0.68;;;23.20;65.40;;;;;;5033324;28;20072;-62
2022/07/14 02:50:59;;;;;;;2.88;0.77;;;23.20;65.40;;;;;;5033126;28;20080;-62
2022/07/14 02:53:25;;;;;;;2.00;0.65;;;23.20;65.30;;;;;;5032554;28;20077;-63
2022/07/14 02:55:50;;;;;;;9.68;1.00;;;23.20;65.40;;;;;;5033059;28;20454;-63
2022/07/14 02:58:18;;;;;;;2.20;0.90;;;23.20;65.30;;;;;;5032432;28;20099;-62
2022/07/14 03:00:43;;;;;;;2.30;0.65;;;23.20;65.40;;;;;;5033021;28;20049;-62
2022/07/14 03:03:09;;;;;;;3.78;0.80;;;23.20;65.40;;;;;;5033102;28;20121;-63
2022/07/14 03:05:34;;;;;;;3.30;0.90;;;23.20;65.40;;;;;;5032274;28;20132;-63
2022/07/14 03:08:00;;;;;;;2.42;0.70;;;23.20;65.40;;;;;;5031758;28;20052;-63
2022/07/14 03:10:25;;;;;;;2.95;0.70;;;23.20;65.40;;;;;;5033250;28;20057;-63
2022/07/14 03:12:52;;;;;;;3.78;0.60;;;23.20;65.40;;;;;;5031624;28;20034;-62
2022/07/14 03:15:18;;;;;;;2.65;0.80;;;23.20;65.40;;;;;;5033090;28;20045;-62
2022/07/14 03:17:44;;;;;;;2.22;0.52;;;23.20;65.40;;;;;;5032625;28;20045;-62
2022/07/14 03:20:09;;;;;;;3.00;0.80;;;23.20;65.40;;;;;;5032059;28;20128;-63
2022/07/14 03:22:35;;;;;;;1.60;0.55;;;23.20;65.40;;;;;;5033058;28;20041;-62
2022/07/14 03:25:00;;;;;;;4.03;0.80;;;23.20;65.40;;;;;;5032668;28;20053;-63
2022/07/14 03:27:26;;;;;;;2.17;0.63;;;23.20;65.40;;;;;;5032006;28;20044;-62
2022/07/14 03:29:52;;;;;;;3.25;0.85;;;23.10;65.30;;;;;;5032082;28;20057;-62
2022/07/14 03:32:17;;;;;;;2.55;0.90;;;23.10;65.30;;;;;;5032908;28;20052;-62
2022/07/14 03:34:43;;;;;;;1.98;0.60;;;23.10;65.30;;;;;;5031672;28;20044;-62
2022/07/14 03:37:09;;;;;;;2.40;0.73;;;23.10;65.40;;;;;;5032541;28;20127;-62
2022/07/14 03:39:35;;;;;;;2.08;0.70;;;23.10;65.40;;;;;;5032610;28;20045;-62
2022/07/14 03:42:01;;;;;;;2.33;0.73;;;23.10;65.40;;;;;;5031691;28;20068;-62
2022/07/14 03:44:26;;;;;;;3.38;0.93;;;23.10;65.40;;;;;;5032605;28;20516;-62
2022/07/14 03:46:52;;;;;;;2.42;0.60;;;23.10;65.40;;;;;;5032056;28;20073;-62
2022/07/14 03:49:17;;;;;;;2.25;0.75;;;23.10;65.40;;;;;;5031848;28;20037;-62
2022/07/14 03:51:43;;;;;;;2.63;0.80;;;23.10;65.40;;;;;;5032272;28;20053;-62
2022/07/14 03:54:09;;;;;;;3.22;0.65;;;23.10;65.40;;;;;;5032546;28;20042;-62
2022/07/14 03:56:36;;;;;;;2.13;0.60;;;23.10;65.40;;;;;;5031437;28;20404;-62
2022/07/14 03:59:03;;;;;;;2.63;0.63;;;23.10;65.50;;;;;;5032226;28;20112;-62
2022/07/14 04:01:28;;;;;;;3.22;0.70;;;23.10;65.50;;;;;;5031024;28;20557;-62
2022/07/14 04:03:54;;;;;;;2.00;0.68;;;23.00;65.40;;;;;;5031840;28;20116;-62
2022/07/14 04:06:20;;;;;;;3.08;0.80;;;23.00;65.40;;;;;;5031942;28;20053;-62
2022/07/14 04:08:46;;;;;;;3.90;0.80;;;23.00;65.40;;;;;;5031043;28;20038;-63
2022/07/14 04:11:12;;;;;;;2.30;0.85;;;23.00;65.50;;;;;;5030932;28;20128;-62
2022/07/14 04:13:38;;;;;;;2.58;0.70;;;23.00;65.40;;;;;;5032373;28;20048;-63
2022/07/14 04:16:04;;;;;;;2.33;0.77;;;23.00;65.40;;;;;;5031164;28;20045;-62
2022/07/14 04:18:29;;;;;;;2.75;0.73;;;23.00;65.40;;;;;;5033466;28;20140;-62
2022/07/14 04:20:55;;;;;;;2.55;0.50;;;23.00;65.40;;;;;;5035897;28;20087;-63
2022/07/14 04:23:21;;;;;;;3.75;0.73;;;23.00;65.40;;;;;;5034142;28;20094;-63
2022/07/14 04:25:47;;;;;;;1.48;0.60;;;23.00;65.40;;;;;;5035872;28;20182;-61
2022/07/14 04:28:14;;;;;;;3.88;0.82;;;23.00;65.40;;;;;;5036121;28;20049;-61
2022/07/14 04:30:39;;;;;;;1.95;0.63;;;23.00;65.40;;;;;;5034805;28;20054;-60
2022/07/14 04:33:05;;;;;;;7.50;0.82;;;23.00;65.30;;;;;;5035837;28;20103;-61
2022/07/14 04:35:30;;;;;;;3.58;0.80;;;23.00;65.30;;;;;;5035822;28;20041;-60
2022/07/14 04:37:56;;;;;;;1.92;0.47;;;23.00;65.30;;;;;;5034472;28;20041;-60
2022/07/14 04:40:21;;;;;;;2.15;0.68;;;23.00;65.30;;;;;;5035519;28;20045;-60
2022/07/14 04:42:47;;;;;;;2.35;0.75;;;23.00;65.30;;;;;;5035314;28;20046;-60
2022/07/14 04:45:12;;;;;;;2.88;0.80;;;23.00;65.30;;;;;;5034706;28;20046;-63
2022/07/14 04:47:38;;;;;;;2.40;0.70;;;23.00;65.30;;;;;;5035370;28;20041;-63
2022/07/14 04:52:49;;;;;;;3.17;0.70;;;23.00;65.40;;;;;;5034696;28;20041;-63
2022/07/14 04:55:15;;;;;;;1.75;0.60;;;23.00;65.40;;;;;;5035743;28;20041;-63
2022/07/14 04:57:40;;;;;;;2.40;0.70;;;23.10;65.50;;;;;;5034956;28;20046;-62
2022/07/14 05:00:06;;;;;;;1.58;0.60;;;23.10;65.50;;;;;;5035224;28;20124;-62
2022/07/14 05:02:32;;;;;;;1.67;0.60;;;23.10;65.60;;;;;;5034697;28;20470;-61
2022/07/14 05:04:58;;;;;;;1.25;0.57;;;23.10;65.60;;;;;;5034154;28;20164;-62
2022/07/14 05:07:24;;;;;;;2.72;0.68;;;23.10;65.60;;;;;;5035264;28;20045;-62
2022/07/14 05:09:50;;;;;;;1.67;0.68;;;23.10;65.60;;;;;;5035135;28;20387;-62
2022/07/14 05:12:16;;;;;;;2.88;0.73;;;23.10;65.60;;;;;;5034938;28;20096;-61
2022/07/14 05:14:42;;;;;;;3.45;0.95;;;23.10;65.50;;;;;;5034861;28;20107;-62
2022/07/14 05:17:07;;;;;;;2.15;0.82;;;23.10;65.50;;;;;;5034929;28;20049;-61
2022/07/14 05:19:33;;;;;;;2.45;0.68;;;23.10;65.60;;;;;;5034576;28;20065;-62
2022/07/14 05:21:58;;;;;;;1.75;0.60;;;23.10;65.60;;;;;;5034906;28;20473;-62
2022/07/14 05:24:24;;;;;;;1.75;0.50;;;23.10;65.70;;;;;;5035054;28;20038;-61
2022/07/14 05:26:49;;;;;;;2.45;0.70;;;23.20;65.70;;;;;;5033817;28;20487;-62
2022/07/14 05:29:15;;;;;;;1.98;0.52;;;23.20;65.70;;;;;;5034207;28;20528;-63
2022/07/14 05:31:40;;;;;;;2.45;0.50;;;23.20;65.70;;;;;;5033992;28;20474;-62
2022/07/14 05:34:06;;;;;;;3.42;0.70;;;23.20;65.70;;;;;;5034175;28;20044;-62
2022/07/14 05:36:32;;;;;;;2.20;0.65;;;23.20;65.70;;;;;;5034631;28;20041;-62
2022/07/14 05:38:57;;;;;;;2.20;0.60;;;23.20;65.60;;;;;;5034595;28;20041;-61
2022/07/14 05:41:23;;;;;;;2.25;0.73;;;23.20;65.70;;;;;;5034236;28;20072;-62
2022/07/14 05:43:48;;;;;;;2.25;0.60;;;23.20;65.70;;;;;;5034397;28;20131;-61
2022/07/14 05:46:14;;;;;;;3.63;1.10;;;23.20;65.60;;;;;;5034419;28;20378;-62
2022/07/14 05:48:40;;;;;;;2.50;0.50;;;23.20;65.60;;;;;;5033659;28;20042;-62
2022/07/14 05:51:11;;;;;;;2.13;0.65;;;23.20;65.70;;;;;;5034309;28;20084;-62
2022/07/14 05:53:37;;;;;;;2.22;0.65;;;23.20;65.70;;;;;;5034437;28;20052;-62
2022/07/14 05:56:04;;;;;;;1.20;0.52;;;23.20;65.70;;;;;;5033254;28;20037;-62
2022/07/14 05:58:29;;;;;;;2.63;0.60;;;23.20;65.70;;;;;;5034424;28;20666;-62
2022/07/14 06:00:55;;;;;;;1.50;0.50;;;23.20;65.70;;;;;;5034228;28;20050;-62
2022/07/14 06:03:20;;;;;;;2.40;0.70;;;23.20;65.90;;;;;;5033808;28;20033;-61
2022/07/14 06:05:46;;;;;;;2.20;0.70;;;23.20;65.70;;;;;;5033974;28;20536;-62
2022/07/14 06:08:12;;;;;;;2.35;0.50;;;23.20;65.70;;;;;;5033618;28;20037;-62
2022/07/14 06:10:38;;;;;;;2.95;0.80;;;23.20;65.70;;;;;;5034172;28;20051;-62
2022/07/14 06:13:03;;;;;;;2.10;0.60;;;23.20;65.70;;;;;;5033799;28;20038;-62
2022/07/14 06:15:30;;;;;;;1.35;0.40;;;23.20;65.70;;;;;;5033515;28;20144;-62
2022/07/14 06:17:55;;;;;;;1.75;0.50;;;23.20;65.70;;;;;;5033931;28;20056;-61
2022/07/14 06:20:21;;;;;;;4.45;0.60;;;23.20;65.70;;;;;;5033717;28;20486;-62
2022/07/14 06:22:47;;;;;;;2.88;0.68;;;23.20;65.70;;;;;;5032849;28;20049;-61
2022/07/14 06:25:13;;;;;;;2.53;0.75;;;23.20;65.70;;;;;;5034016;28;20041;-61
2022/07/14 06:27:39;;;;;;;2.63;0.70;;;23.20;65.70;;;;;;5033919;28;20034;-62
2022/07/14 06:30:05;;;;;;;2.97;0.80;;;23.20;65.70;;;;;;5031293;28;20068;-62
2022/07/14 06:32:31;;;;;;;1.08;0.50;;;23.20;65.70;;;;;;5033970;28;20041;-62
2022/07/14 06:34:57;;;;;;;1.45;0.47;;;23.30;65.70;;;;;;5033489;28;20056;-60
2022/07/14 06:37:22;;;;;;;2.60;0.88;;;23.20;65.60;;;;;;5031783;28;20049;-60
2022/07/14 06:39:48;;;;;;;2.08;0.70;;;23.30;65.70;;;;;;5033383;28;20378;-62
2022/07/14 06:42:13;;;;;;;3.47;0.68;;;23.30;65.70;;;;;;5033442;28;20379;-62
2022/07/14 06:44:39;;;;;;;2.47;0.55;;;23.30;65.70;;;;;;5032449;28;20140;-61
2022/07/14 06:47:05;;;;;;;3.53;0.85;;;23.30;65.60;;;;;;5033313;28;20115;-61
2022/07/14 06:49:31;;;;;;;4.28;0.93;;;23.30;65.60;;;;;;5033498;28;20065;-61
2022/07/14 06:51:56;;;;;;;2.97;0.70;;;23.30;65.60;;;;;;5032494;28;20188;-61
2022/07/14 06:54:22;;;;;;;3.42;0.68;;;23.40;65.60;;;;;;5033228;28;20041;-62
2022/07/14 06:56:47;;;;;;;3.45;0.80;;;23.40;65.60;;;;;;5032660;28;20569;-61
2022/07/14 06:59:13;;;;;;;2.75;0.70;;;23.40;65.60;;;;;;5032426;28;20501;-61
2022/07/14 07:01:39;;;;;;;5.78;0.80;;;23.40;65.70;;;;;;5032893;28;20156;-62
2022/07/14 07:04:04;;;;;;;2.88;0.77;;;23.40;65.60;;;;;;5032074;28;20041;-63
2022/07/14 07:06:45;;;;;;;3.13;0.77;;;23.40;65.70;;;;;;5032229;28;20041;-63
2022/07/14 07:09:12;;;;;;;1.95;0.68;;;23.40;65.80;;;;;;5032359;28;20099;-63
2022/07/14 07:11:38;;;;;;;3.47;0.60;;;23.40;65.90;;;;;;5032148;28;20042;-62
2022/07/14 07:14:04;;;;;;;3.50;0.80;;;23.40;66.10;;;;;;5031984;28;20069;-63
2022/07/14 07:16:29;;;;;;;2.95;0.50;;;23.40;66.10;;;;;;5032347;28;20079;-62
2022/07/14 07:18:55;;;;;;;2.88;0.68;;;23.40;66.10;;;;;;5031752;28;20046;-63
2022/07/14 07:21:20;;;;;;;3.92;0.90;;;23.40;66.10;;;;;;5033144;28;20060;-63
2022/07/14 07:23:49;;;;;;;2.83;0.85;;;23.40;66.80;;;;;;5032450;28;20081;-63
2022/07/14 07:26:16;;;;;;;3.83;0.90;;;23.40;66.20;;;;;;5032021;28;20045;-61
2022/07/14 07:28:41;;;;;;;3.30;0.95;;;23.40;66.30;;;;;;5031267;28;20042;-61
2022/07/14 07:31:07;;;;;;;3.03;0.60;;;23.50;66.20;;;;;;5032883;28;20104;-62
2022/07/14 07:33:32;;;;;;;3.30;0.60;;;23.50;66.20;;;;;;5032256;28;20055;-62
2022/07/14 07:35:59;;;;;;;3.58;0.85;;;23.50;66.10;;;;;;5032455;28;20125;-62
2022/07/14 07:38:25;;;;;;;2.67;0.77;;;23.60;65.90;;;;;;5031929;28;20056;-62
2022/07/14 07:40:53;;;;;;;2.67;0.52;;;23.60;65.80;;;;;;5031266;28;20041;-60
2022/07/14 07:43:20;;;;;;;2.25;0.50;;;23.60;65.60;;;;;;5032393;28;20088;-60
2022/07/14 07:45:47;;;;;;;3.72;0.65;;;23.60;65.50;;;;;;5031921;28;20470;-61
2022/07/14 07:48:12;;;;;;;2.75;0.70;;;23.60;65.30;;;;;;5031666;28;20037;-61
2022/07/14 07:50:39;;;;;;;4.85;0.65;;;23.60;65.30;;;;;;5032579;28;20045;-61
2022/07/14 07:53:09;;;;;;;3.37;0.57;;;23.60;65.30;;;;;;5033038;28;20057;-61
2022/07/14 07:55:34;;;;;;;2.47;0.60;;;23.60;65.30;;;;;;5037034;28;20084;-62
2022/07/14 07:58:00;;;;;;;3.38;0.90;;;23.60;65.20;;;;;;5038057;28;20081;-62
2022/07/14 08:00:26;;;;;;;6.03;0.93;;;23.60;65.30;;;;;;5037972;28;20033;-62
2022/07/14 08:02:55;;;;;;;5.13;1.10;;;23.60;65.40;;;;;;5036590;28;20095;-66
2022/07/14 08:05:22;;;;;;;5.20;1.52;;;23.60;65.30;;;;;;5038559;28;20049;-62
2022/07/14 08:07:48;;;;;;;5.95;0.95;;;23.60;65.20;;;;;;5035290;28;20374;-63
2022/07/14 08:10:14;;;;;;;6.22;1.23;;;23.60;64.80;;;;;;5036659;28;20060;-63
2022/07/14 08:12:40;;;;;;;5.90;0.65;;;23.60;64.30;;;;;;5037026;28;20046;-62
2022/07/14 08:15:06;;;;;;;8.80;1.52;;;23.60;62.40;;;;;;5037816;28;20041;-64
2022/07/14 08:17:32;;;;;;;2.78;0.60;;;23.50;61.00;;;;;;5037508;28;20144;-64
2022/07/14 08:19:57;;;;;;;5.60;0.70;;;23.50;60.10;;;;;;5038648;28;20065;-63
2022/07/14 08:22:24;;;;;;;6.07;0.80;;;23.40;59.50;;;;;;5038004;28;20508;-63
2022/07/14 08:24:49;;;;;;;3.22;0.50;;;23.40;59.10;;;;;;5038586;28;20046;-64
2022/07/14 08:27:15;;;;;;;2.85;0.65;;;23.40;59.10;;;;;;5038614;28;20060;-64
2022/07/14 08:29:41;;;;;;;6.35;1.23;;;23.30;58.60;;;;;;5037394;28;20053;-63
2022/07/14 08:32:07;;;;;;;2.63;0.50;;;23.30;58.30;;;;;;5038834;28;20048;-63
2022/07/14 08:34:32;;;;;;;4.18;0.70;;;23.30;58.30;;;;;;5038890;28;20037;-64
2022/07/14 08:37:00;;;;;;;3.47;0.55;;;23.30;57.90;;;;;;5037582;28;20132;-63
2022/07/14 08:39:26;;;;;;;5.93;0.60;;;23.30;57.40;;;;;;5038803;28;20041;-64
2022/07/14 08:41:54;;;;;;;2.72;0.50;;;23.30;57.30;;;;;;5038161;28;20033;-64
2022/07/14 08:44:20;;;;;;;2.33;0.47;;;23.20;57.20;;;;;;5037348;28;20148;-63
2022/07/14 08:46:46;;;;;;;3.90;0.70;;;23.20;57.40;;;;;;5038162;28;20464;-63
2022/07/14 08:49:11;;;;;;;4.38;0.60;;;23.20;57.10;;;;;;5038748;28;20041;-64
2022/07/14 08:51:38;;;;;;;3.83;0.70;;;23.20;56.70;;;;;;5036656;28;20045;-63
2022/07/14 08:54:03;;;;;;;3.35;0.50;;;23.20;56.70;;;;;;5036759;28;20081;-63
2022/07/14 08:56:30;;;;;;;3.90;0.60;;;23.20;56.00;;;;;;5038441;28;20076;-63
2022/07/14 08:58:55;;;;;;;2.08;0.50;;;23.20;56.00;;;;;;5037202;28;20481;-62
2022/07/14 09:01:21;;;;;;;2.17;0.57;;;23.10;56.00;;;;;;5037597;28;20101;-64
2022/07/14 09:03:49;;;;;;;4.10;0.50;;;23.10;55.50;;;;;;5040642;28;20505;-64
2022/07/14 09:06:46;;;;;;;6.50;0.50;;;23.10;55.30;;;;;;5035457;28;20045;-63
2022/07/14 09:09:17;;;;;;;3.80;0.52;;;23.10;55.30;;;;;;5035174;28;20057;-64
2022/07/14 09:12:06;;;;;;;1.95;0.40;;;23.10;55.80;;;;;;5033555;28;20037;-63
2022/07/14 09:17:25;;;;;;;4.05;0.60;;;23.10;55.90;;;;;;5033369;28;20486;-64
2022/07/14 09:20:08;;;;;;;4.70;0.50;;;23.10;56.10;;;;;;5031231;28;20057;-63
2022/07/14 09:22:36;;;;;;;2.75;0.40;;;23.20;55.90;;;;;;5032745;28;20501;-63
2022/07/14 09:25:03;;;;;;;2.10;0.40;;;23.20;56.40;;;;;;5033394;28;20041;-63
2022/07/14 09:27:29;;;;;;;4.32;0.40;;;23.20;55.40;;;;;;5034620;28;20042;-62
2022/07/14 09:29:57;;;;;;;6.93;0.60;;;23.20;55.40;;;;;;5015906;28;20063;-63
2022/07/14 09:32:42;;;;;;;3.55;0.43;;;23.20;55.30;;;;;;5033807;28;20033;-63
2022/07/14 09:35:11;;;;;;;2.22;0.30;;;23.20;55.00;;;;;;5031785;28;20064;-63
2022/07/14 09:37:38;;;;;;;3.65;0.40;;;23.20;55.00;;;;;;5034052;28;20477;-63
2022/07/14 09:40:04;;;;;;;2.80;0.40;;;23.20;54.90;;;;;;5032228;28;20091;-64
2022/07/14 09:42:46;;;;;;;2.38;0.50;;;23.20;55.00;;;;;;5033600;28;20044;-62
2022/07/14 09:45:13;;;;;;;3.00;0.60;;;23.20;54.70;;;;;;5032964;28;20048;-62
2022/07/14 09:47:56;;;;;;;2.28;0.63;;;23.20;54.80;;;;;;5032208;28;20486;-64
2022/07/14 09:50:40;;;;;;;3.25;0.60;;;23.20;54.80;;;;;;5032040;28;20049;-64
2022/07/14 09:53:26;;;;;;;2.70;0.40;;;23.20;54.50;;;;;;5033732;28;20049;-64
2022/07/14 09:56:04;;;;;;;2.60;0.30;;;23.20;54.30;;;;;;5034129;28;20041;-63
2022/07/14 09:58:54;;;;;;;;;;;23.20;54.50;;;;;;5034715;28;20519;-64
2022/07/14 10:01:20;;;;;;;2.20;0.40;;;23.20;54.10;;;;;;5033711;28;19925;-64
2022/07/14 10:03:47;;;;;;;5.63;0.50;;;23.20;54.40;;;;;;5034144;28;20041;-65
2022/07/14 10:06:14;;;;;;;3.03;0.27;;;23.20;53.90;;;;;;5034117;28;20400;-64
2022/07/14 10:08:43;;;;;;;3.75;0.47;;;23.20;53.80;;;;;;5032033;28;20038;-63
2022/07/14 10:11:08;;;;;;;4.35;0.50;;;23.20;53.80;;;;;;5034275;28;20045;-64
2022/07/14 10:13:34;;;;;;;2.22;0.45;;;23.20;53.60;;;;;;5033835;28;20563;-63
2022/07/14 10:16:00;;;;;;;4.75;0.40;;;23.10;53.50;;;;;;5014479;28;20152;-63
2022/07/14 10:18:26;;;;;;;3.22;0.60;;;23.20;53.60;;;;;;5034019;28;20051;-63
2022/07/14 10:20:56;;;;;;;3.75;0.40;;;23.20;53.70;;;;;;5033695;28;20497;-65
2022/07/14 10:23:23;;;;;;;3.25;0.60;;;23.20;53.80;;;;;;5032918;28;20505;-63
2022/07/14 10:25:50;;;;;;;2.35;0.50;;;23.20;53.80;;;;;;5033653;28;20060;-63
2022/07/14 10:28:16;;;;;;;4.03;0.52;;;23.20;53.70;;;;;;5033038;28;20504;-63
2022/07/14 10:31:03;;;;;;;2.08;0.47;;;23.20;53.70;;;;;;5033043;28;20472;-63
2022/07/14 10:33:51;;;;;;;2.33;0.50;;;23.20;53.70;;;;;;5033873;28;20131;-63
2022/07/14 10:36:38;;;;;;;3.83;0.50;;;23.20;53.70;;;;;;5031705;28;20063;-64
2022/07/14 10:39:25;;;;;;;3.58;0.40;;;23.20;54.00;;;;;;5033477;28;20138;-64
2022/07/14 10:42:02;;;;;;;1.80;0.40;;;23.20;54.00;;;;;;5031953;28;20057;-64
2022/07/14 10:44:29;;;;;;;2.38;0.50;;;23.20;53.90;;;;;;5032124;28;20037;-68
2022/07/14 10:47:14;;;;;;;1.83;0.47;;;23.20;53.90;;;;;;5031490;28;20049;-64
2022/07/14 10:50:00;;;;;;;2.28;0.40;;;23.20;53.80;;;;;;5031078;28;20041;-67
2022/07/14 10:52:29;;;;;;;3.03;0.70;;;23.20;53.60;;;;;;5032003;28;20087;-64
2022/07/14 10:55:13;;;;;;;2.08;0.73;;;23.20;53.40;;;;;;5065042;28;20045;-67
2022/07/14 10:57:39;;;;;;;3.65;0.30;;;23.20;53.50;;;;;;5030671;28;20038;-67
2022/07/14 11:00:05;;;;;;;2.75;0.30;;;23.20;53.50;;;;;;5032087;28;20061;-66
2022/07/14 11:02:33;;;;;;;3.28;0.50;;;23.20;53.20;;;;;;5031266;28;20511;-65
2022/07/14 11:07:46;;;;;;;;;;;23.20;53.00;;;;;;5033166;28;20099;-67
2022/07/14 11:10:18;;;;;;;2.28;0.40;;;23.10;53.10;;;;;;5032399;28;19921;-66
2022/07/14 11:13:02;;;;;;;2.80;0.45;;;23.10;52.90;;;;;;5031958;28;20135;-66
2022/07/14 11:15:43;;;;;;;2.97;0.38;;;23.20;52.80;;;;;;5032695;28;20547;-65
2022/07/14 11:18:33;;;;;;;2.08;0.35;;;23.10;52.70;;;;;;5031893;28;20052;-65
2022/07/14 11:21:00;;;;;;;4.22;0.40;;;23.10;52.40;;;;;;5031866;28;20128;-63
2022/07/14 11:23:30;;;;;;;1.85;0.50;;;23.10;52.50;;;;;;5032512;28;20057;-64
2022/07/14 11:25:56;;;;;;;2.25;0.40;;;23.10;52.60;;;;;;5031604;28;20103;-63
2022/07/14 11:28:37;;;;;;;2.95;0.43;;;23.10;52.50;;;;;;5030847;28;20076;-62
2022/07/14 11:31:13;;;;;;;3.80;0.80;;;23.10;52.60;;;;;;5032400;28;20057;-63
2022/07/14 11:36:25;;;;;;;2.33;0.40;;;23.10;52.90;;;;;;5032428;28;20509;-63
2022/07/14 11:38:50;;;;;;;2.67;0.57;;;23.20;53.10;;;;;;5030554;28;20077;-63
2022/07/14 11:41:16;;;;;;;2.78;0.40;;;23.20;53.20;;;;;;5031173;28;20393;-62
2022/07/14 11:43:43;;;;;;;2.95;0.40;;;23.20;53.30;;;;;;5032240;28;20051;-63
2022/07/14 11:46:10;;;;;;;1.77;0.35;;;23.20;53.30;;;;;;5031733;28;20103;-63
2022/07/14 11:48:41;;;;;;;1.77;0.40;;;23.20;53.50;;;;;;5032632;28;20042;-63
2022/07/14 11:51:21;;;;;;;3.55;0.43;;;23.20;53.60;;;;;;5032633;28;20056;-63
2022/07/14 11:53:52;;;;;;;2.22;0.32;;;23.20;53.90;;;;;;5030210;28;20049;-63
2022/07/14 11:56:21;;;;;;;1.77;0.30;;;23.20;54.00;;;;;;5032789;28;20041;-63
2022/07/14 11:58:47;;;;;;;2.72;0.50;;;23.20;54.10;;;;;;5030722;28;20439;-63
2022/07/14 12:01:13;;;;;;;1.30;0.40;;;23.20;54.20;;;;;;5014116;28;20049;-63
2022/07/14 12:03:38;;;;;;;2.05;0.40;;;23.20;54.30;;;;;;5031060;28;20223;-63
2022/07/14 12:06:04;;;;;;;2.20;0.40;;;23.20;54.50;;;;;;5032188;28;20084;-63
2022/07/14 12:08:32;;;;;;;2.60;0.40;;;23.20;54.50;;;;;;5031721;28;20049;-62
2022/07/14 12:11:02;;;;;;;0.95;0.30;;;23.20;54.50;;;;;;5032122;28;20049;-62
2022/07/14 12:13:27;;;;;;;1.98;0.30;;;23.20;54.60;;;;;;5032390;28;20046;-62
2022/07/14 12:15:59;;;;;;;2.88;0.30;;;23.20;54.80;;;;;;5031106;28;20041;-62
2022/07/14 12:18:28;;;;;;;3.38;0.32;;;23.20;54.90;;;;;;5032153;28;20045;-62
2022/07/14 12:20:54;;;;;;;3.42;0.38;;;23.20;54.90;;;;;;5030985;28;20042;-62
2022/07/14 12:23:19;;;;;;;3.08;0.30;;;23.20;55.10;;;;;;5032617;28;20137;-62
2022/07/14 12:25:46;;;;;;;1.60;0.30;;;23.20;55.20;;;;;;5031946;28;20132;-63
2022/07/14 12:28:15;;;;;;;1.85;0.30;;;23.30;55.40;;;;;;5031709;28;20076;-62
2022/07/14 12:30:54;;;;;;;2.15;0.30;;;23.20;55.40;;;;;;5031376;28;20468;-62
2022/07/14 12:33:25;;;;;;;1.70;0.35;;;23.30;55.70;;;;;;5032141;28;20049;-63
2022/07/14 12:35:54;;;;;;;1.77;0.35;;;23.30;55.80;;;;;;5031032;28;20099;-62
2022/07/14 12:38:19;;;;;;;0.77;0.25;;;23.30;55.80;;;;;;5032557;28;20049;-62
2022/07/14 12:40:48;;;;;;;1.88;0.30;;;23.30;55.80;;;;;;5033694;28;20041;-62
2022/07/14 12:43:13;;;;;;;1.70;0.30;;;23.30;55.90;;;;;;5035287;28;20080;-62
2022/07/14 12:46:15;;;;;;;2.90;0.47;;;23.30;55.90;;;;;;5034205;28;20076;-62
2022/07/14 12:48:50;;;;;;;1.73;0.32;;;23.40;56.10;;;;;;5035584;28;20045;-62
2022/07/14 12:51:32;;;;;;;2.33;0.50;;;23.30;56.10;;;;;;5035227;28;20037;-62
2022/07/14 12:54:06;;;;;;;1.63;0.28;;;23.30;56.20;;;;;;5035471;28;20052;-61
2022/07/14 12:56:53;;;;;;;1.33;0.30;;;23.30;56.30;;;;;;5034956;28;20049;-62
2022/07/14 12:59:25;;;;;;;1.38;0.30;;;23.30;56.30;;;;;;5035563;28;20045;-62
2022/07/14 13:01:50;;;;;;;0.90;0.30;;;23.30;56.40;;;;;;5035196;28;20043;-62
2022/07/14 13:04:43;;;;;;;1.25;0.30;;;23.30;56.40;;;;;;5033476;28;20045;-61
2022/07/14 13:07:27;;;;;;;1.33;0.22;;;23.30;56.50;;;;;;5035594;28;20052;-62